Atwood, Kentucky
Current Conditions -  °F | °C
As of 7:52 AM on Saturday 25 Oct 2014 (Local Time) from KCVG Reporting Station
Haze Haze  
Wind Chill: 50°   Ceiling: 6000
Heat Index: 50°   Visibility: 6mi
Dew Point: 45°   Wind: 8mph
Humidity: 83%   Direction: 200°SSW
Pressure: 29.99"   Gusts: NA
Location:  38.8354°N, 84.5143°W
Report Text: KCVG 251152Z 20007KT 6SM HZ BKN060 10/07 A2999 RMK AO2 SLP155 T01000072 10100 20078 56007
Loading
Personal Weather Stations






























Interactive Weather Map
Tropical Storm Tracking
New forecast layout! Learn more

10-Day Weather Forecast

Advertisements
Track Severe Weather on mobile